createdAt,value
2022-08-07T03:02:36.463Z,0.70
2022-08-07T03:05:11.703Z,0.60
2022-08-07T03:08:07.618Z,0.77
2022-08-07T03:10:40.709Z,0.60
2022-08-07T03:13:19.674Z,0.60
2022-08-07T03:15:58.271Z,0.82
2022-08-07T03:18:34.965Z,0.60
2022-08-07T03:21:08.480Z,0.60
2022-08-07T03:24:19.836Z,0.75
2022-08-07T03:26:33.188Z,0.75
2022-08-07T03:29:10.997Z,0.77
2022-08-07T03:31:46.258Z,0.68
2022-08-07T03:34:22.316Z,0.68
2022-08-07T03:36:54.987Z,0.80
2022-08-07T03:39:45.752Z,0.65
2022-08-07T03:42:18.866Z,0.57
2022-08-07T03:44:53.613Z,0.65
2022-08-07T03:47:27.988Z,0.60
2022-08-07T03:49:59.820Z,0.68
2022-08-07T03:52:34.221Z,0.68
2022-08-07T03:55:07.853Z,0.80
2022-08-07T03:58:34.023Z,0.70
2022-08-07T04:00:35.366Z,0.70
2022-08-07T04:03:05.083Z,0.88
2022-08-07T04:05:45.565Z,0.80
2022-08-07T04:08:21.511Z,0.85
2022-08-07T04:10:54.831Z,0.80
2022-08-07T04:14:33.058Z,0.73
2022-08-07T04:16:32.365Z,0.80
2022-08-07T04:19:12.618Z,0.73
2022-08-07T04:21:48.026Z,0.60
2022-08-07T04:24:34.152Z,0.70
2022-08-07T04:27:20.592Z,0.60
2022-08-07T04:30:01.650Z,0.60
2022-08-07T04:33:00.675Z,0.60
2022-08-07T04:35:35.107Z,0.73
2022-08-07T04:38:07.978Z,0.80
2022-08-07T04:40:51.338Z,0.70
2022-08-07T04:44:09.982Z,0.70
2022-08-07T04:46:20.158Z,0.57
2022-08-07T04:49:14.884Z,0.63
2022-08-07T04:51:55.905Z,0.85
2022-08-07T04:54:33.326Z,0.90
2022-08-07T04:58:09.905Z,0.70
2022-08-07T05:00:09.920Z,0.80
2022-08-07T05:02:53.547Z,0.60
2022-08-07T05:05:53.632Z,0.75
2022-08-07T05:08:45.491Z,0.80
2022-08-07T05:11:19.377Z,0.73
2022-08-07T05:14:54.549Z,0.60
2022-08-07T05:16:47.468Z,0.85
2022-08-07T05:19:25.686Z,0.80
2022-08-07T05:22:12.752Z,0.90
2022-08-07T05:24:57.177Z,0.77
2022-08-07T05:28:05.976Z,0.80
2022-08-07T05:30:21.155Z,0.80
2022-08-07T05:33:03.253Z,0.77
2022-08-07T05:35:41.747Z,0.80
2022-08-07T05:38:12.418Z,0.70
2022-08-07T05:41:02.257Z,0.70
2022-08-07T05:44:07.732Z,0.70
2022-08-07T05:46:32.285Z,0.80
2022-08-07T05:49:01.301Z,0.75
2022-08-07T05:51:42.545Z,0.60
2022-08-07T05:54:29.987Z,0.85
2022-08-07T05:56:59.975Z,0.80
2022-08-07T05:59:46.624Z,0.82
2022-08-07T06:02:28.542Z,0.70
2022-08-07T06:05:03.371Z,0.80
2022-08-07T06:08:14.537Z,0.75
2022-08-07T06:10:24.414Z,0.70
2022-08-07T06:12:52.481Z,0.80
2022-08-07T06:15:23.066Z,0.60
2022-08-07T06:18:10.336Z,0.77
2022-08-07T06:20:51.061Z,0.80
2022-08-07T06:24:38.526Z,1.10
2022-08-07T06:26:17.911Z,0.70
2022-08-07T06:28:50.543Z,0.75
2022-08-07T06:31:24.264Z,1.10
2022-08-07T06:34:11.063Z,0.70
2022-08-07T06:36:41.553Z,0.90
2022-08-07T06:40:13.051Z,0.60
2022-08-07T06:42:07.094Z,0.73
2022-08-07T06:44:57.721Z,0.80
2022-08-07T06:47:27.708Z,0.73
2022-08-07T06:50:08.358Z,0.60
2022-08-07T06:52:45.162Z,0.70
2022-08-07T06:55:31.421Z,0.73
2022-08-07T06:58:10.583Z,0.80
2022-08-07T07:00:55.278Z,0.50
2022-08-07T07:03:47.924Z,0.52
2022-08-07T07:06:14.437Z,0.60
2022-08-07T07:08:52.089Z,0.50
2022-08-07T07:12:08.389Z,0.60
2022-08-07T07:14:10.052Z,0.57
2022-08-07T07:16:49.542Z,0.57
2022-08-07T07:19:54.713Z,0.60
2022-08-07T07:22:36.435Z,0.70
2022-08-07T07:26:30.591Z,0.60
2022-08-07T07:28:02.396Z,0.70
2022-08-07T07:30:38.721Z,0.65
2022-08-07T07:33:11.880Z,0.50
2022-08-07T07:36:03.962Z,0.70
2022-08-07T07:38:33.519Z,0.60
2022-08-07T07:41:05.340Z,0.60
2022-08-07T07:44:14.274Z,0.80
2022-08-07T07:46:39.874Z,0.60
2022-08-07T07:50:34.813Z,0.90
2022-08-07T07:52:12.729Z,0.70
2022-08-07T07:54:50.862Z,0.70
2022-08-07T07:57:43.719Z,0.73
2022-08-07T08:00:12.166Z,0.70
2022-08-07T08:03:05.341Z,0.90
2022-08-07T08:05:53.846Z,0.88
2022-08-07T08:08:35.339Z,0.80
2022-08-07T08:11:08.001Z,0.70
2022-08-07T08:13:54.332Z,0.60
2022-08-07T08:16:30.048Z,0.70
2022-08-07T08:19:17.260Z,0.82
2022-08-07T08:22:07.827Z,0.70
2022-08-07T08:25:04.438Z,0.90
2022-08-07T08:27:56.388Z,0.80
2022-08-07T08:30:27.969Z,0.85
2022-08-07T08:32:59.940Z,0.88
2022-08-07T08:35:38.978Z,0.80
2022-08-07T08:38:09.601Z,0.77
2022-08-07T08:40:43.766Z,0.88
2022-08-07T08:43:20.788Z,0.93
2022-08-07T08:46:09.143Z,0.80
2022-08-07T08:48:41.731Z,0.90
2022-08-07T08:51:26.036Z,0.90
2022-08-07T08:54:16.851Z,0.90
2022-08-07T08:56:50.899Z,0.95
2022-08-07T08:59:27.223Z,1.02
2022-08-07T09:02:01.425Z,0.90
2022-08-07T09:04:42.263Z,0.85
2022-08-07T09:07:23.265Z,0.85
2022-08-07T09:10:03.298Z,1.10
2022-08-07T09:12:53.289Z,1.20
2022-08-07T09:16:21.759Z,1.02
2022-08-07T09:18:52.894Z,1.10
2022-08-07T09:22:23.131Z,0.88
2022-08-07T09:24:58.904Z,0.90
2022-08-07T09:27:54.607Z,1.20
2022-08-07T09:30:48.181Z,1.10
2022-08-07T09:33:52.423Z,0.85
2022-08-07T09:36:35.646Z,1.10
2022-08-07T09:39:54.190Z,1.20
2022-08-07T09:42:28.343Z,1.08
2022-08-07T09:47:25.075Z,1.05
2022-08-07T09:48:19.228Z,1.27
2022-08-07T09:50:57.035Z,1.20
2022-08-07T09:53:41.226Z,1.33
2022-08-07T09:56:44.077Z,1.30
2022-08-07T09:59:44.704Z,1.20
2022-08-07T10:02:45.117Z,1.45
2022-08-07T10:05:59.875Z,1.00
2022-08-07T10:08:52.352Z,1.23
2022-08-07T10:12:01.723Z,1.10
2022-08-07T10:15:04.694Z,1.08
2022-08-07T10:18:01.293Z,1.00
2022-08-07T10:20:50.344Z,1.17
2022-08-07T10:24:05.649Z,1.23
2022-08-07T10:26:44.226Z,1.25
2022-08-07T10:29:43.218Z,1.30
2022-08-07T10:32:52.211Z,1.27
2022-08-07T10:35:56.562Z,1.20
2022-08-07T10:38:48.417Z,1.13
2022-08-07T10:41:51.790Z,1.20
2022-08-07T10:44:19.266Z,1.15
2022-08-07T10:47:11.546Z,1.05
2022-08-07T10:49:50.911Z,1.50
2022-08-07T10:52:31.847Z,0.93
2022-08-07T10:55:26.523Z,0.90
2022-08-07T10:58:11.595Z,1.10
2022-08-07T11:00:50.552Z,1.00
2022-08-07T11:03:37.648Z,1.08
2022-08-07T11:06:26.909Z,1.20
2022-08-07T11:09:02.747Z,1.10
2022-08-07T11:11:37.585Z,1.00
2022-08-07T11:14:45.308Z,1.08
2022-08-07T11:17:09.113Z,0.90
2022-08-07T11:19:41.018Z,1.08
2022-08-07T11:22:26.622Z,1.10
2022-08-07T11:25:07.533Z,1.00
2022-08-07T11:28:03.246Z,0.77
2022-08-07T11:30:42.227Z,1.10
2022-08-07T11:33:19.851Z,1.10
2022-08-07T11:36:25.192Z,0.90
2022-08-07T11:39:07.276Z,1.15
2022-08-07T11:42:01.955Z,1.10
2022-08-07T11:44:52.090Z,1.05
2022-08-07T11:47:39.180Z,1.00
2022-08-07T11:50:48.821Z,0.90
2022-08-07T11:53:37.878Z,1.00
2022-08-07T11:56:28.338Z,1.10
2022-08-07T12:00:08.844Z,1.05
2022-08-07T12:02:20.714Z,0.90
2022-08-07T12:05:28.921Z,1.00
2022-08-07T12:08:07.521Z,1.10
2022-08-07T12:11:08.162Z,1.20
2022-08-07T12:13:51.542Z,1.10
2022-08-07T12:16:30.492Z,1.00
2022-08-07T12:19:21.475Z,1.00
2022-08-07T12:22:39.273Z,1.20
2022-08-07T12:25:07.671Z,1.00
2022-08-07T12:28:08.589Z,0.90
2022-08-07T12:30:34.065Z,1.02
2022-08-07T12:33:18.855Z,1.00
2022-08-07T12:35:58.197Z,1.00
2022-08-07T12:38:36.759Z,1.23
2022-08-07T12:41:10.003Z,1.00
2022-08-07T12:44:02.677Z,0.90
2022-08-07T12:46:41.085Z,0.90
2022-08-07T12:49:25.888Z,0.93
2022-08-07T12:52:14.682Z,1.08
2022-08-07T12:54:57.312Z,0.82
2022-08-07T12:57:59.246Z,0.90
2022-08-07T13:00:32.734Z,0.93
2022-08-07T13:03:23.002Z,1.00
2022-08-07T13:06:26.902Z,0.90
2022-08-07T13:10:11.032Z,0.93
2022-08-07T13:12:10.232Z,0.90
2022-08-07T13:14:51.417Z,0.77
2022-08-07T13:17:40.082Z,1.00
2022-08-07T13:20:17.005Z,0.85
2022-08-07T13:22:53.363Z,1.00
2022-08-07T13:25:30.744Z,0.85
2022-08-07T13:28:10.806Z,0.80
2022-08-07T13:30:53.250Z,1.00
2022-08-07T13:34:30.971Z,0.90
2022-08-07T13:36:31.612Z,0.70
2022-08-07T13:39:28.239Z,0.88
2022-08-07T13:42:02.686Z,0.98
2022-08-07T13:44:37.165Z,0.88
2022-08-07T13:47:09.467Z,0.60
2022-08-07T13:50:35.436Z,0.80
2022-08-07T13:52:38.063Z,0.80
2022-08-07T13:55:19.249Z,0.70
2022-08-07T13:58:27.812Z,0.70
2022-08-07T14:01:00.798Z,0.73
2022-08-07T14:04:05.117Z,0.80
2022-08-07T14:06:33.502Z,0.90
2022-08-07T14:09:04.712Z,1.20
2022-08-07T14:11:53.493Z,1.00
2022-08-07T14:14:32.949Z,1.00
2022-08-07T14:17:13.005Z,0.70
2022-08-07T14:20:40.551Z,0.60
2022-08-07T14:22:48.326Z,0.75
2022-08-07T14:25:18.598Z,0.93
2022-08-07T14:28:10.440Z,0.60
2022-08-07T14:30:40.865Z,0.70
2022-08-07T14:33:10.083Z,0.80
2022-08-07T14:35:47.428Z,0.68
2022-08-07T14:38:30.249Z,0.65
2022-08-07T14:41:04.011Z,0.95
2022-08-07T14:43:58.780Z,0.90
2022-08-07T14:46:31.034Z,0.80
2022-08-07T14:49:17.209Z,0.80
2022-08-07T14:52:03.730Z,0.95
2022-08-07T14:54:35.906Z,0.90
2022-08-07T14:57:19.321Z,0.90
2022-08-07T15:00:05.707Z,0.95
2022-08-07T15:02:37.150Z,0.88
2022-08-07T15:05:20.187Z,0.65
2022-08-07T15:07:51.334Z,0.70
2022-08-07T15:10:26.556Z,0.90
2022-08-07T15:13:01.367Z,0.70
2022-08-07T15:15:38.585Z,0.90
2022-08-07T15:21:04.010Z,1.35
2022-08-07T15:25:02.886Z,1.50
2022-08-07T15:26:38.601Z,0.70
2022-08-07T15:30:06.885Z,0.93
2022-08-07T15:32:02.946Z,0.80
2022-08-07T15:34:37.456Z,0.88
2022-08-07T15:37:27.777Z,0.95
2022-08-07T15:39:59.609Z,1.00
2022-08-07T15:48:31.821Z,1.00
2022-08-07T15:53:58.525Z,1.10
2022-08-07T15:56:33.514Z,0.88
2022-08-07T15:59:05.675Z,1.00
2022-08-07T16:01:39.256Z,1.00
2022-08-07T16:04:15.307Z,1.00
2022-08-07T16:06:51.426Z,1.00
2022-08-07T16:09:41.855Z,1.00
2022-08-07T16:12:30.495Z,1.00
2022-08-07T16:15:07.124Z,0.90
2022-08-07T16:18:00.783Z,0.90
2022-08-07T16:21:43.719Z,1.10
2022-08-07T16:23:58.358Z,1.00
2022-08-07T16:26:59.258Z,1.13
2022-08-07T16:30:10.773Z,1.20
2022-08-07T16:32:39.354Z,1.15
2022-08-07T16:35:51.989Z,1.00
2022-08-07T16:38:29.608Z,1.20
2022-08-07T16:41:41.117Z,1.20
2022-08-07T16:45:14.674Z,1.20
2022-08-07T16:48:27.814Z,1.25
2022-08-07T16:52:01.910Z,1.40
2022-08-07T16:54:32.610Z,1.10
2022-08-07T16:57:15.812Z,0.93
2022-08-07T17:00:13.283Z,1.08
2022-08-07T17:03:17.044Z,0.93
2022-08-07T17:06:19.445Z,1.00
2022-08-07T17:09:09.722Z,1.10
2022-08-07T17:12:04.786Z,1.42
2022-08-07T17:14:46.039Z,1.20
2022-08-07T17:17:46.821Z,1.10
2022-08-07T17:20:30.069Z,1.20
2022-08-07T17:23:08.613Z,1.30
2022-08-07T17:25:56.982Z,1.20
2022-08-07T17:28:32.253Z,1.15
2022-08-07T17:31:16.593Z,1.05
2022-08-07T17:34:32.595Z,1.40
2022-08-07T17:36:48.975Z,1.40
2022-08-07T17:39:58.878Z,1.13
2022-08-07T17:42:58.443Z,1.30
2022-08-07T17:45:30.809Z,1.50
2022-08-07T17:48:08.687Z,1.10
2022-08-07T17:50:58.304Z,1.30
2022-08-07T17:53:59.854Z,1.10
2022-08-07T17:56:29.354Z,0.93
2022-08-07T17:59:09.802Z,1.00
2022-08-07T18:01:48.619Z,0.90
2022-08-07T18:04:34.531Z,0.90
2022-08-07T18:07:23.606Z,1.00
2022-08-07T18:10:06.161Z,0.85
2022-08-07T18:13:16.503Z,0.90
2022-08-07T18:15:56.632Z,1.05
2022-08-07T18:18:47.225Z,0.95
2022-08-07T18:21:51.602Z,1.00
2022-08-07T18:24:33.132Z,0.90
2022-08-07T18:27:17.209Z,1.02
2022-08-07T18:30:06.694Z,0.82
2022-08-07T18:33:10.697Z,1.00
2022-08-07T18:35:53.649Z,1.05
2022-08-07T18:38:55.183Z,1.17
2022-08-07T18:41:44.854Z,1.10
2022-08-07T18:44:30.273Z,0.90
2022-08-07T18:47:06.799Z,1.20
2022-08-07T18:50:19.461Z,2.05
2022-08-07T18:52:55.190Z,2.60
2022-08-07T18:55:41.015Z,4.07
2022-08-07T18:58:34.135Z,7.18
2022-08-07T19:02:17.389Z,4.47
2022-08-07T19:04:09.326Z,2.25
2022-08-07T19:06:48.312Z,1.75
2022-08-07T19:09:55.563Z,1.60
2022-08-07T19:12:21.712Z,1.42
2022-08-07T19:16:02.973Z,1.30
2022-08-07T19:18:18.662Z,1.40
2022-08-07T19:21:09.072Z,1.25
2022-08-07T19:23:59.479Z,0.90
2022-08-07T19:26:55.461Z,1.10
2022-08-07T19:31:05.261Z,1.00
2022-08-07T19:32:29.013Z,1.10
2022-08-07T19:35:02.935Z,1.08
2022-08-07T19:37:55.111Z,0.80
2022-08-07T19:40:31.452Z,1.00
2022-08-07T19:43:09.613Z,1.05
2022-08-07T19:46:07.466Z,1.00
2022-08-07T19:48:42.614Z,1.10
2022-08-07T19:51:19.972Z,1.00
2022-08-07T19:54:34.341Z,1.02
2022-08-07T19:57:51.231Z,0.95
2022-08-07T19:59:40.919Z,1.10
2022-08-07T20:02:19.166Z,1.00
2022-08-07T20:04:50.050Z,1.02
2022-08-07T20:07:47.363Z,1.50
2022-08-07T20:10:36.537Z,1.10
2022-08-07T20:13:15.746Z,1.52
2022-08-07T20:15:54.065Z,1.60
2022-08-07T20:18:32.205Z,1.70
2022-08-07T20:21:03.894Z,1.40
2022-08-07T20:23:51.842Z,1.40
2022-08-07T20:26:29.963Z,1.42
2022-08-07T20:29:46.822Z,1.30
2022-08-07T20:32:02.018Z,1.27
2022-08-07T20:34:50.222Z,1.10
2022-08-07T20:37:24.105Z,1.10
2022-08-07T20:40:04.252Z,1.13
2022-08-07T20:42:34.387Z,1.10
2022-08-07T20:45:33.159Z,1.50
2022-08-07T20:47:58.170Z,1.38
2022-08-07T20:50:30.569Z,1.40
2022-08-07T20:52:59.095Z,1.50
2022-08-07T20:55:27.359Z,1.40
2022-08-07T20:58:02.638Z,1.33
2022-08-07T21:00:42.927Z,1.30
2022-08-07T21:03:15.431Z,1.30
2022-08-07T21:05:55.732Z,1.35
2022-08-07T21:08:37.559Z,1.55
2022-08-07T21:11:12.232Z,1.42
2022-08-07T21:14:16.250Z,1.30
2022-08-07T21:16:56.427Z,1.33
2022-08-07T21:19:32.301Z,1.70
2022-08-07T21:22:20.969Z,1.75
2022-08-07T21:25:12.377Z,1.90
2022-08-07T21:27:54.169Z,1.75
